Guernsey Island, United Kingdom
Current Conditions -  °F | °C
As of 6:20 PM on Thursday 23 Oct 2014 (Local Time) from EGJB Reporting Station
Broken Clouds Broken Clouds  
Wind Chill: 59°   Ceiling: 2400
Heat Index: 59°   Visibility: 6mi
Dew Point: 59°   Wind: 15mph
Humidity: 100%   Direction: 220°SW
Pressure: 30.12"   Gusts: NA
Location:  49.43°N, 2.6°W
Report Text: EGJB 231720Z 22013KT 9999 SCT006 SCT008 BKN024 15/15 Q1020
Loading
Personal Weather Stations






























Interactive Weather Map New forecast layout! Learn more

10-Day Weather Forecast

Advertisements
Track Severe Weather on mobile